sensor_id;sensor_type;location;lat;lon;timestamp;temperature;humidity
27745;DHT22;61387;48.112;8.616;2023-07-13T00:01:50;18.80;99.90
27745;DHT22;61387;48.112;8.616;2023-07-13T00:04:18;18.70;99.90
27745;DHT22;61387;48.112;8.616;2023-07-13T00:06:44;18.70;99.90
27745;DHT22;61387;48.112;8.616;2023-07-13T00:09:12;18.60;99.90
27745;DHT22;61387;48.112;8.616;2023-07-13T00:11:39;18.80;99.90
27745;DHT22;61387;48.112;8.616;2023-07-13T00:14:05;18.80;99.90
27745;DHT22;61387;48.112;8.616;2023-07-13T00:16:31;18.80;99.90
27745;DHT22;61387;48.112;8.616;2023-07-13T00:23:48;18.70;99.90
27745;DHT22;61387;48.112;8.616;2023-07-13T00:31:08;18.60;99.90
27745;DHT22;61387;48.112;8.616;2023-07-13T00:33:34;18.60;99.90
27745;DHT22;61387;48.112;8.616;2023-07-13T00:40:51;18.40;99.90
27745;DHT22;61387;48.112;8.616;2023-07-13T00:43:20;18.40;99.90
27745;DHT22;61387;48.112;8.616;2023-07-13T00:48:15;18.20;99.90
27745;DHT22;61387;48.112;8.616;2023-07-13T00:50:44;17.90;99.90
27745;DHT22;61387;48.112;8.616;2023-07-13T00:53:12;17.90;99.90
27745;DHT22;61387;48.112;8.616;2023-07-13T00:55:39;17.80;99.90
27745;DHT22;61387;48.112;8.616;2023-07-13T00:58:05;17.40;99.90
27745;DHT22;61387;48.112;8.616;2023-07-13T01:00:34;17.30;99.90
27745;DHT22;61387;48.112;8.616;2023-07-13T01:03:03;17.20;99.90
27745;DHT22;61387;48.112;8.616;2023-07-13T01:05:30;17.20;99.90
27745;DHT22;61387;48.112;8.616;2023-07-13T01:07:57;17.40;99.90
27745;DHT22;61387;48.112;8.616;2023-07-13T01:10:24;17.00;99.90
27745;DHT22;61387;48.112;8.616;2023-07-13T01:12:50;17.00;99.90
27745;DHT22;61387;48.112;8.616;2023-07-13T01:15:39;17.00;99.90
27745;DHT22;61387;48.112;8.616;2023-07-13T01:18:14;17.00;99.90
27745;DHT22;61387;48.112;8.616;2023-07-13T01:20:41;17.20;99.90
27745;DHT22;61387;48.112;8.616;2023-07-13T01:23:10;17.20;99.90
27745;DHT22;61387;48.112;8.616;2023-07-13T01:25:36;17.30;99.90
27745;DHT22;61387;48.112;8.616;2023-07-13T01:28:03;17.40;99.90
27745;DHT22;61387;48.112;8.616;2023-07-13T01:30:29;17.40;99.90
27745;DHT22;61387;48.112;8.616;2023-07-13T01:32:55;17.50;99.90
27745;DHT22;61387;48.112;8.616;2023-07-13T01:37:47;17.50;99.90
27745;DHT22;61387;48.112;8.616;2023-07-13T01:40:13;17.50;99.90
27745;DHT22;61387;48.112;8.616;2023-07-13T01:42:38;17.50;99.90
27745;DHT22;61387;48.112;8.616;2023-07-13T01:45:04;17.40;99.90
27745;DHT22;61387;48.112;8.616;2023-07-13T01:47:30;17.40;99.90
27745;DHT22;61387;48.112;8.616;2023-07-13T01:49:57;17.30;99.90
27745;DHT22;61387;48.112;8.616;2023-07-13T01:52:23;17.20;99.90
27745;DHT22;61387;48.112;8.616;2023-07-13T01:54:49;17.20;99.90
27745;DHT22;61387;48.112;8.616;2023-07-13T01:57:15;17.10;99.90
27745;DHT22;61387;48.112;8.616;2023-07-13T01:59:40;17.10;99.90
27745;DHT22;61387;48.112;8.616;2023-07-13T02:02:06;17.10;99.90
27745;DHT22;61387;48.112;8.616;2023-07-13T02:06:57;17.20;99.90
27745;DHT22;61387;48.112;8.616;2023-07-13T02:11:49;17.10;99.90
27745;DHT22;61387;48.112;8.616;2023-07-13T02:16:41;17.10;99.90
27745;DHT22;61387;48.112;8.616;2023-07-13T02:21:33;17.00;99.90
27745;DHT22;61387;48.112;8.616;2023-07-13T02:26:25;16.90;99.90
27745;DHT22;61387;48.112;8.616;2023-07-13T02:28:51;16.90;99.90
27745;DHT22;61387;48.112;8.616;2023-07-13T02:33:43;16.90;99.90
27745;DHT22;61387;48.112;8.616;2023-07-13T02:38:35;16.70;99.90
27745;DHT22;61387;48.112;8.616;2023-07-13T02:41:02;16.80;99.90
27745;DHT22;61387;48.112;8.616;2023-07-13T02:45:55;16.80;99.90
27745;DHT22;61387;48.112;8.616;2023-07-13T02:48:20;16.70;99.90
27745;DHT22;61387;48.112;8.616;2023-07-13T02:53:12;16.60;99.90
27745;DHT22;61387;48.112;8.616;2023-07-13T02:58:06;16.60;99.90
27745;DHT22;61387;48.112;8.616;2023-07-13T03:00:32;16.60;99.90
27745;DHT22;61387;48.112;8.616;2023-07-13T03:07:49;16.30;99.90
27745;DHT22;61387;48.112;8.616;2023-07-13T03:10:15;16.20;99.90
27745;DHT22;61387;48.112;8.616;2023-07-13T03:12:41;16.10;99.90
27745;DHT22;61387;48.112;8.616;2023-07-13T03:15:07;16.10;99.90
27745;DHT22;61387;48.112;8.616;2023-07-13T03:19:58;15.90;99.90
27745;DHT22;61387;48.112;8.616;2023-07-13T03:22:24;15.80;99.90
27745;DHT22;61387;48.112;8.616;2023-07-13T03:24:49;15.80;99.90
27745;DHT22;61387;48.112;8.616;2023-07-13T03:27:17;15.70;99.90
27745;DHT22;61387;48.112;8.616;2023-07-13T03:37:01;15.60;99.90
27745;DHT22;61387;48.112;8.616;2023-07-13T03:44:19;15.50;99.90
27745;DHT22;61387;48.112;8.616;2023-07-13T03:46:45;15.60;99.90
27745;DHT22;61387;48.112;8.616;2023-07-13T03:49:11;15.60;99.90
27745;DHT22;61387;48.112;8.616;2023-07-13T03:51:37;15.70;99.90
27745;DHT22;61387;48.112;8.616;2023-07-13T03:54:03;15.70;99.90
27745;DHT22;61387;48.112;8.616;2023-07-13T03:56:29;15.70;99.90
27745;DHT22;61387;48.112;8.616;2023-07-13T04:01:23;15.60;99.90
27745;DHT22;61387;48.112;8.616;2023-07-13T04:06:26;15.80;99.90
27745;DHT22;61387;48.112;8.616;2023-07-13T04:08:54;15.80;99.90
27745;DHT22;61387;48.112;8.616;2023-07-13T04:11:21;15.80;99.90
27745;DHT22;61387;48.112;8.616;2023-07-13T04:16:15;15.90;99.90
27745;DHT22;61387;48.112;8.616;2023-07-13T04:18:40;16.00;99.90
27745;DHT22;61387;48.112;8.616;2023-07-13T04:21:08;16.00;99.90
27745;DHT22;61387;48.112;8.616;2023-07-13T04:28:26;16.10;99.90
27745;DHT22;61387;48.112;8.616;2023-07-13T04:30:53;16.10;99.90
27745;DHT22;61387;48.112;8.616;2023-07-13T04:33:18;16.00;99.90
27745;DHT22;61387;48.112;8.616;2023-07-13T04:35:48;16.10;99.90
27745;DHT22;61387;48.112;8.616;2023-07-13T04:40:44;16.20;99.90
27745;DHT22;61387;48.112;8.616;2023-07-13T04:48:02;16.30;99.90
27745;DHT22;61387;48.112;8.616;2023-07-13T04:50:28;16.40;99.90
27745;DHT22;61387;48.112;8.616;2023-07-13T04:55:20;16.10;99.90
27745;DHT22;61387;48.112;8.616;2023-07-13T05:00:12;16.10;99.90
27745;DHT22;61387;48.112;8.616;2023-07-13T05:02:39;16.50;99.90
27745;DHT22;61387;48.112;8.616;2023-07-13T05:05:06;18.00;99.90
27745;DHT22;61387;48.112;8.616;2023-07-13T05:07:32;16.60;99.90
27745;DHT22;61387;48.112;8.616;2023-07-13T05:09:59;16.80;99.90
27745;DHT22;61387;48.112;8.616;2023-07-13T05:17:17;17.00;99.90
27745;DHT22;61387;48.112;8.616;2023-07-13T05:19:42;16.90;99.90
27745;DHT22;61387;48.112;8.616;2023-07-13T05:27:00;17.40;99.90
27745;DHT22;61387;48.112;8.616;2023-07-13T05:34:18;17.70;99.90
27745;DHT22;61387;48.112;8.616;2023-07-13T05:41:36;18.10;99.90
27745;DHT22;61387;48.112;8.616;2023-07-13T05:44:02;18.30;99.90
27745;DHT22;61387;48.112;8.616;2023-07-13T05:46:28;18.50;99.90
27745;DHT22;61387;48.112;8.616;2023-07-13T05:51:20;18.90;99.90
27745;DHT22;61387;48.112;8.616;2023-07-13T05:53:46;18.90;99.90
27745;DHT22;61387;48.112;8.616;2023-07-13T05:58:38;18.90;99.90
27745;DHT22;61387;48.112;8.616;2023-07-13T06:01:06;18.90;99.90
27745;DHT22;61387;48.112;8.616;2023-07-13T06:03:32;19.10;99.90
27745;DHT22;61387;48.112;8.616;2023-07-13T06:05:57;18.70;99.90
27745;DHT22;61387;48.112;8.616;2023-07-13T06:08:25;18.70;99.90
27745;DHT22;61387;48.112;8.616;2023-07-13T06:10:51;18.70;99.90
27745;DHT22;61387;48.112;8.616;2023-07-13T06:13:17;18.80;99.90
27745;DHT22;61387;48.112;8.616;2023-07-13T06:15:48;18.80;99.90
27745;DHT22;61387;48.112;8.616;2023-07-13T06:18:14;18.90;99.90
27745;DHT22;61387;48.112;8.616;2023-07-13T06:23:05;18.80;99.90
27745;DHT22;61387;48.112;8.616;2023-07-13T06:25:33;18.80;99.90
27745;DHT22;61387;48.112;8.616;2023-07-13T06:27:59;19.20;99.90
27745;DHT22;61387;48.112;8.616;2023-07-13T06:30:26;21.10;99.90
27745;DHT22;61387;48.112;8.616;2023-07-13T06:35:17;19.20;99.90
27745;DHT22;61387;48.112;8.616;2023-07-13T06:37:43;19.30;99.90
27745;DHT22;61387;48.112;8.616;2023-07-13T06:40:09;19.30;99.90
27745;DHT22;61387;48.112;8.616;2023-07-13T06:45:01;19.30;99.90
27745;DHT22;61387;48.112;8.616;2023-07-13T06:47:26;19.40;99.90
27745;DHT22;61387;48.112;8.616;2023-07-13T06:57:10;19.60;99.90
27745;DHT22;61387;48.112;8.616;2023-07-13T07:02:01;19.70;99.90
27745;DHT22;61387;48.112;8.616;2023-07-13T07:04:27;19.90;99.90
27745;DHT22;61387;48.112;8.616;2023-07-13T07:06:52;20.20;99.90
27745;DHT22;61387;48.112;8.616;2023-07-13T07:09:18;20.40;99.90
27745;DHT22;61387;48.112;8.616;2023-07-13T07:11:43;20.60;99.90
27745;DHT22;61387;48.112;8.616;2023-07-13T07:23:53;20.30;99.90
27745;DHT22;61387;48.112;8.616;2023-07-13T07:31:11;20.70;99.90
27745;DHT22;61387;48.112;8.616;2023-07-13T07:33:36;20.60;99.90
27745;DHT22;61387;48.112;8.616;2023-07-13T07:36:02;20.70;99.90
27745;DHT22;61387;48.112;8.616;2023-07-13T07:38:28;20.90;99.90
27745;DHT22;61387;48.112;8.616;2023-07-13T07:45:46;21.00;99.90
27745;DHT22;61387;48.112;8.616;2023-07-13T07:48:12;21.10;99.90
27745;DHT22;61387;48.112;8.616;2023-07-13T07:50:38;20.90;99.90
27745;DHT22;61387;48.112;8.616;2023-07-13T07:53:05;20.80;99.90
27745;DHT22;61387;48.112;8.616;2023-07-13T07:55:33;21.10;99.90
27745;DHT22;61387;48.112;8.616;2023-07-13T07:58:00;21.10;99.90
27745;DHT22;61387;48.112;8.616;2023-07-13T08:02:53;21.10;99.90
27745;DHT22;61387;48.112;8.616;2023-07-13T08:05:19;21.00;99.90
27745;DHT22;61387;48.112;8.616;2023-07-13T08:07:44;21.00;99.90
27745;DHT22;61387;48.112;8.616;2023-07-13T08:12:40;21.20;99.90
27745;DHT22;61387;48.112;8.616;2023-07-13T08:15:07;21.30;99.90
27745;DHT22;61387;48.112;8.616;2023-07-13T08:17:34;21.40;99.90
27745;DHT22;61387;48.112;8.616;2023-07-13T08:19:59;21.70;99.90
27745;DHT22;61387;48.112;8.616;2023-07-13T08:22:25;22.80;99.90
27745;DHT22;61387;48.112;8.616;2023-07-13T08:24:50;22.70;99.90
27745;DHT22;61387;48.112;8.616;2023-07-13T08:27:24;23.20;99.90
27745;DHT22;61387;48.112;8.616;2023-07-13T08:29:52;23.30;99.90
27745;DHT22;61387;48.112;8.616;2023-07-13T08:32:19;23.10;99.90
27745;DHT22;61387;48.112;8.616;2023-07-13T08:34:45;23.10;99.90
27745;DHT22;61387;48.112;8.616;2023-07-13T08:37:11;23.10;99.90
27745;DHT22;61387;48.112;8.616;2023-07-13T08:45:22;23.40;99.90
27745;DHT22;61387;48.112;8.616;2023-07-13T08:47:54;23.70;99.90
27745;DHT22;61387;48.112;8.616;2023-07-13T08:50:27;23.60;99.90
27745;DHT22;61387;48.112;8.616;2023-07-13T08:53:02;23.90;99.90
27745;DHT22;61387;48.112;8.616;2023-07-13T08:55:35;23.40;99.90
27745;DHT22;61387;48.112;8.616;2023-07-13T08:58:12;23.20;99.90
27745;DHT22;61387;48.112;8.616;2023-07-13T09:00:56;22.90;99.90
27745;DHT22;61387;48.112;8.616;2023-07-13T09:03:26;22.70;99.90
27745;DHT22;61387;48.112;8.616;2023-07-13T09:05:58;22.40;99.90
27745;DHT22;61387;48.112;8.616;2023-07-13T09:08:31;22.60;99.90
27745;DHT22;61387;48.112;8.616;2023-07-13T09:13:50;22.20;99.90
27745;DHT22;61387;48.112;8.616;2023-07-13T09:16:19;22.20;99.90
27745;DHT22;61387;48.112;8.616;2023-07-13T09:18:51;22.40;99.90
27745;DHT22;61387;48.112;8.616;2023-07-13T09:21:23;22.90;99.90
27745;DHT22;61387;48.112;8.616;2023-07-13T09:23:53;23.20;99.90
27745;DHT22;61387;48.112;8.616;2023-07-13T09:26:22;23.80;99.90
27745;DHT22;61387;48.112;8.616;2023-07-13T09:28:56;23.10;99.90
27745;DHT22;61387;48.112;8.616;2023-07-13T09:31:42;23.00;99.90
27745;DHT22;61387;48.112;8.616;2023-07-13T09:34:11;23.00;99.90
27745;DHT22;61387;48.112;8.616;2023-07-13T09:36:37;22.80;99.90
27745;DHT22;61387;48.112;8.616;2023-07-13T09:44:26;22.70;99.90
27745;DHT22;61387;48.112;8.616;2023-07-13T09:46:55;22.80;99.90
27745;DHT22;61387;48.112;8.616;2023-07-13T09:49:29;22.80;99.90
27745;DHT22;61387;48.112;8.616;2023-07-13T09:52:11;22.80;99.90
27745;DHT22;61387;48.112;8.616;2023-07-13T09:54:38;23.10;99.90
27745;DHT22;61387;48.112;8.616;2023-07-13T09:57:19;23.30;99.90
27745;DHT22;61387;48.112;8.616;2023-07-13T09:59:51;23.60;99.90
27745;DHT22;61387;48.112;8.616;2023-07-13T10:02:35;23.90;99.90
27745;DHT22;61387;48.112;8.616;2023-07-13T10:05:04;24.00;99.90
27745;DHT22;61387;48.112;8.616;2023-07-13T10:07:35;24.00;99.90
27745;DHT22;61387;48.112;8.616;2023-07-13T10:10:03;25.00;99.90
27745;DHT22;61387;48.112;8.616;2023-07-13T10:12:30;24.50;99.90
27745;DHT22;61387;48.112;8.616;2023-07-13T10:15:01;24.30;99.90
27745;DHT22;61387;48.112;8.616;2023-07-13T10:17:30;24.30;99.90
27745;DHT22;61387;48.112;8.616;2023-07-13T10:20:03;23.60;99.90
27745;DHT22;61387;48.112;8.616;2023-07-13T10:22:54;23.30;99.90
27745;DHT22;61387;48.112;8.616;2023-07-13T10:25:24;23.80;99.90
27745;DHT22;61387;48.112;8.616;2023-07-13T10:27:52;23.80;99.90
27745;DHT22;61387;48.112;8.616;2023-07-13T10:30:24;24.10;99.90
27745;DHT22;61387;48.112;8.616;2023-07-13T10:33:00;24.00;99.90
27745;DHT22;61387;48.112;8.616;2023-07-13T10:35:29;24.20;99.90
27745;DHT22;61387;48.112;8.616;2023-07-13T10:38:02;24.20;99.90
27745;DHT22;61387;48.112;8.616;2023-07-13T10:41:01;24.20;99.60
27745;DHT22;61387;48.112;8.616;2023-07-13T10:43:35;24.20;99.70
27745;DHT22;61387;48.112;8.616;2023-07-13T10:46:05;24.20;99.90
27745;DHT22;61387;48.112;8.616;2023-07-13T10:48:32;24.70;99.90
27745;DHT22;61387;48.112;8.616;2023-07-13T10:51:00;25.10;99.90
27745;DHT22;61387;48.112;8.616;2023-07-13T10:53:37;25.10;99.90
27745;DHT22;61387;48.112;8.616;2023-07-13T10:56:28;24.80;99.20
27745;DHT22;61387;48.112;8.616;2023-07-13T10:59:26;24.60;99.40
27745;DHT22;61387;48.112;8.616;2023-07-13T11:01:55;24.10;99.50
27745;DHT22;61387;48.112;8.616;2023-07-13T11:04:21;24.10;99.90
27745;DHT22;61387;48.112;8.616;2023-07-13T11:06:53;24.20;99.90
27745;DHT22;61387;48.112;8.616;2023-07-13T11:09:34;23.90;99.90
27745;DHT22;61387;48.112;8.616;2023-07-13T11:17:38;23.50;99.20
27745;DHT22;61387;48.112;8.616;2023-07-13T11:22:52;24.50;98.50
27745;DHT22;61387;48.112;8.616;2023-07-13T11:25:27;24.70;98.10
27745;DHT22;61387;48.112;8.616;2023-07-13T11:28:06;24.70;98.80
27745;DHT22;61387;48.112;8.616;2023-07-13T11:30:47;25.00;97.30
27745;DHT22;61387;48.112;8.616;2023-07-13T11:33:27;25.30;97.00
27745;DHT22;61387;48.112;8.616;2023-07-13T11:38:35;24.90;97.60
27745;DHT22;61387;48.112;8.616;2023-07-13T11:41:06;24.90;98.10
27745;DHT22;61387;48.112;8.616;2023-07-13T11:43:32;25.00;98.00
27745;DHT22;61387;48.112;8.616;2023-07-13T11:46:11;25.20;97.10
27745;DHT22;61387;48.112;8.616;2023-07-13T11:48:37;25.40;96.40
27745;DHT22;61387;48.112;8.616;2023-07-13T11:51:04;25.20;96.90
27745;DHT22;61387;48.112;8.616;2023-07-13T11:53:38;25.10;96.80
27745;DHT22;61387;48.112;8.616;2023-07-13T11:56:05;24.90;97.80
27745;DHT22;61387;48.112;8.616;2023-07-13T11:58:32;24.60;96.70
27745;DHT22;61387;48.112;8.616;2023-07-13T12:00:59;24.20;96.10
27745;DHT22;61387;48.112;8.616;2023-07-13T12:06:02;24.10;96.90
27745;DHT22;61387;48.112;8.616;2023-07-13T12:08:28;24.00;96.80
27745;DHT22;61387;48.112;8.616;2023-07-13T12:11:04;24.20;95.90
27745;DHT22;61387;48.112;8.616;2023-07-13T12:13:38;24.50;96.40
27745;DHT22;61387;48.112;8.616;2023-07-13T12:16:26;24.40;96.60
27745;DHT22;61387;48.112;8.616;2023-07-13T12:18:53;24.40;96.50
27745;DHT22;61387;48.112;8.616;2023-07-13T12:21:22;25.00;96.60
27745;DHT22;61387;48.112;8.616;2023-07-13T12:23:50;25.20;96.30
27745;DHT22;61387;48.112;8.616;2023-07-13T12:26:18;25.60;93.80
27745;DHT22;61387;48.112;8.616;2023-07-13T12:28:56;25.80;94.30
27745;DHT22;61387;48.112;8.616;2023-07-13T12:31:41;25.90;94.90
27745;DHT22;61387;48.112;8.616;2023-07-13T12:34:17;25.90;94.80
27745;DHT22;61387;48.112;8.616;2023-07-13T12:39:35;26.40;94.30
27745;DHT22;61387;48.112;8.616;2023-07-13T12:42:27;26.70;93.80
27745;DHT22;61387;48.112;8.616;2023-07-13T12:45:00;26.60;92.60
27745;DHT22;61387;48.112;8.616;2023-07-13T12:47:27;26.70;92.90
27745;DHT22;61387;48.112;8.616;2023-07-13T12:49:55;26.40;93.60
27745;DHT22;61387;48.112;8.616;2023-07-13T12:52:28;25.90;93.00
27745;DHT22;61387;48.112;8.616;2023-07-13T12:54:57;25.40;93.40
27745;DHT22;61387;48.112;8.616;2023-07-13T12:59:52;25.30;93.40
27745;DHT22;61387;48.112;8.616;2023-07-13T13:02:33;25.00;93.50
27745;DHT22;61387;48.112;8.616;2023-07-13T13:05:01;25.20;93.90
27745;DHT22;61387;48.112;8.616;2023-07-13T13:07:28;25.40;94.00
27745;DHT22;61387;48.112;8.616;2023-07-13T13:09:54;25.60;94.10
27745;DHT22;61387;48.112;8.616;2023-07-13T13:14:46;25.30;93.40
27745;DHT22;61387;48.112;8.616;2023-07-13T13:17:20;25.60;94.10
27745;DHT22;61387;48.112;8.616;2023-07-13T13:22:12;25.00;94.40
27745;DHT22;61387;48.112;8.616;2023-07-13T13:27:13;25.00;94.00
27745;DHT22;61387;48.112;8.616;2023-07-13T13:29:40;25.30;93.90
27745;DHT22;61387;48.112;8.616;2023-07-13T13:32:11;25.80;92.90
27745;DHT22;61387;48.112;8.616;2023-07-13T13:34:37;26.00;93.80
27745;DHT22;61387;48.112;8.616;2023-07-13T13:37:03;25.90;92.90
27745;DHT22;61387;48.112;8.616;2023-07-13T13:46:52;25.40;93.50
27745;DHT22;61387;48.112;8.616;2023-07-13T13:49:22;25.50;93.40
27745;DHT22;61387;48.112;8.616;2023-07-13T13:51:49;25.50;92.80
27745;DHT22;61387;48.112;8.616;2023-07-13T13:54:17;25.30;91.60
27745;DHT22;61387;48.112;8.616;2023-07-13T13:56:45;25.30;91.70
27745;DHT22;61387;48.112;8.616;2023-07-13T13:59:11;25.20;93.20
27745;DHT22;61387;48.112;8.616;2023-07-13T14:04:03;25.10;92.00
27745;DHT22;61387;48.112;8.616;2023-07-13T14:08:56;24.80;91.20
27745;DHT22;61387;48.112;8.616;2023-07-13T14:11:22;25.50;91.10
27745;DHT22;61387;48.112;8.616;2023-07-13T14:13:56;25.50;91.40
27745;DHT22;61387;48.112;8.616;2023-07-13T14:16:26;25.20;91.40
27745;DHT22;61387;48.112;8.616;2023-07-13T14:18:53;25.70;91.50
27745;DHT22;61387;48.112;8.616;2023-07-13T14:21:21;25.60;91.90
27745;DHT22;61387;48.112;8.616;2023-07-13T14:23:48;25.80;93.10
27745;DHT22;61387;48.112;8.616;2023-07-13T14:26:22;25.60;93.10
27745;DHT22;61387;48.112;8.616;2023-07-13T14:28:53;25.30;93.90
27745;DHT22;61387;48.112;8.616;2023-07-13T14:31:20;25.30;93.50
27745;DHT22;61387;48.112;8.616;2023-07-13T14:33:46;25.10;94.00
27745;DHT22;61387;48.112;8.616;2023-07-13T14:36:31;25.40;93.90
27745;DHT22;61387;48.112;8.616;2023-07-13T14:39:00;25.90;93.60
27745;DHT22;61387;48.112;8.616;2023-07-13T14:41:26;25.70;93.60
27745;DHT22;61387;48.112;8.616;2023-07-13T14:43:54;25.70;94.00
27745;DHT22;61387;48.112;8.616;2023-07-13T14:46:30;25.60;94.40
27745;DHT22;61387;48.112;8.616;2023-07-13T14:49:14;27.30;94.10
27745;DHT22;61387;48.112;8.616;2023-07-13T14:51:40;25.50;93.90
27745;DHT22;61387;48.112;8.616;2023-07-13T14:54:08;25.50;94.10
27745;DHT22;61387;48.112;8.616;2023-07-13T14:56:34;26.60;94.70
27745;DHT22;61387;48.112;8.616;2023-07-13T15:06:19;24.40;95.30
27745;DHT22;61387;48.112;8.616;2023-07-13T15:08:45;24.30;95.50
27745;DHT22;61387;48.112;8.616;2023-07-13T15:11:13;24.90;94.70
27745;DHT22;61387;48.112;8.616;2023-07-13T15:13:39;24.90;94.40
27745;DHT22;61387;48.112;8.616;2023-07-13T15:16:17;27.70;95.70
27745;DHT22;61387;48.112;8.616;2023-07-13T15:18:46;26.50;96.00
27745;DHT22;61387;48.112;8.616;2023-07-13T15:21:15;23.90;95.60
27745;DHT22;61387;48.112;8.616;2023-07-13T15:26:13;24.20;95.50
27745;DHT22;61387;48.112;8.616;2023-07-13T15:31:32;25.20;94.50
27745;DHT22;61387;48.112;8.616;2023-07-13T15:33:57;24.80;95.10
27745;DHT22;61387;48.112;8.616;2023-07-13T15:36:24;24.80;95.40
27745;DHT22;61387;48.112;8.616;2023-07-13T15:38:53;25.00;95.10
27745;DHT22;61387;48.112;8.616;2023-07-13T15:41:22;25.50;94.70
27745;DHT22;61387;48.112;8.616;2023-07-13T15:43:50;25.40;94.60
27745;DHT22;61387;48.112;8.616;2023-07-13T15:46:18;24.90;94.90
27745;DHT22;61387;48.112;8.616;2023-07-13T15:51:13;25.90;94.50
27745;DHT22;61387;48.112;8.616;2023-07-13T15:53:40;25.30;94.50
27745;DHT22;61387;48.112;8.616;2023-07-13T15:56:23;24.90;95.20
27745;DHT22;61387;48.112;8.616;2023-07-13T15:58:51;25.00;95.20
27745;DHT22;61387;48.112;8.616;2023-07-13T16:01:17;25.40;94.50
27745;DHT22;61387;48.112;8.616;2023-07-13T16:03:46;25.50;94.80
27745;DHT22;61387;48.112;8.616;2023-07-13T16:06:23;24.90;95.40
27745;DHT22;61387;48.112;8.616;2023-07-13T16:08:52;24.70;95.90
27745;DHT22;61387;48.112;8.616;2023-07-13T16:11:21;24.80;95.30
27745;DHT22;61387;48.112;8.616;2023-07-13T16:13:47;24.90;95.60
27745;DHT22;61387;48.112;8.616;2023-07-13T16:16:19;24.80;95.40
27745;DHT22;61387;48.112;8.616;2023-07-13T16:21:13;24.90;96.00
27745;DHT22;61387;48.112;8.616;2023-07-13T16:26:37;25.80;94.90
27745;DHT22;61387;48.112;8.616;2023-07-13T16:29:22;26.60;95.50
27745;DHT22;61387;48.112;8.616;2023-07-13T16:32:01;24.80;95.50
27745;DHT22;61387;48.112;8.616;2023-07-13T16:34:28;24.70;96.00
27745;DHT22;61387;48.112;8.616;2023-07-13T16:36:54;24.60;95.90
27745;DHT22;61387;48.112;8.616;2023-07-13T16:39:21;25.20;95.90
27745;DHT22;61387;48.112;8.616;2023-07-13T16:44:17;26.10;94.40
27745;DHT22;61387;48.112;8.616;2023-07-13T16:46:45;28.20;95.50
27745;DHT22;61387;48.112;8.616;2023-07-13T16:49:24;26.40;94.80
27745;DHT22;61387;48.112;8.616;2023-07-13T16:51:51;26.00;94.60
27745;DHT22;61387;48.112;8.616;2023-07-13T16:54:17;26.00;94.30
27745;DHT22;61387;48.112;8.616;2023-07-13T16:56:45;26.00;94.20
27745;DHT22;61387;48.112;8.616;2023-07-13T16:59:19;25.70;94.70
27745;DHT22;61387;48.112;8.616;2023-07-13T17:01:45;25.30;94.80
27745;DHT22;61387;48.112;8.616;2023-07-13T17:04:18;25.40;94.90
27745;DHT22;61387;48.112;8.616;2023-07-13T17:09:13;25.40;94.70
27745;DHT22;61387;48.112;8.616;2023-07-13T17:11:40;25.60;94.60
27745;DHT22;61387;48.112;8.616;2023-07-13T17:14:16;25.50;94.60
27745;DHT22;61387;48.112;8.616;2023-07-13T17:16:45;25.50;94.80
27745;DHT22;61387;48.112;8.616;2023-07-13T17:19:13;25.50;94.60
27745;DHT22;61387;48.112;8.616;2023-07-13T17:24:18;25.10;94.30
27745;DHT22;61387;48.112;8.616;2023-07-13T17:26:46;25.00;94.50
27745;DHT22;61387;48.112;8.616;2023-07-13T17:29:12;24.80;94.60
27745;DHT22;61387;48.112;8.616;2023-07-13T17:31:37;24.90;94.70
27745;DHT22;61387;48.112;8.616;2023-07-13T17:36:31;24.40;95.10
27745;DHT22;61387;48.112;8.616;2023-07-13T17:41:25;24.80;95.20
27745;DHT22;61387;48.112;8.616;2023-07-13T17:43:52;24.70;95.80
27745;DHT22;61387;48.112;8.616;2023-07-13T17:48:45;24.80;95.00
27745;DHT22;61387;48.112;8.616;2023-07-13T17:51:14;24.60;95.90
27745;DHT22;61387;48.112;8.616;2023-07-13T17:53:40;24.60;96.20
27745;DHT22;61387;48.112;8.616;2023-07-13T17:56:11;24.20;96.20
27745;DHT22;61387;48.112;8.616;2023-07-13T17:58:38;24.20;96.50
27745;DHT22;61387;48.112;8.616;2023-07-13T18:01:04;23.60;96.80
27745;DHT22;61387;48.112;8.616;2023-07-13T18:03:33;23.80;97.00
27745;DHT22;61387;48.112;8.616;2023-07-13T18:06:11;23.50;97.10
27745;DHT22;61387;48.112;8.616;2023-07-13T18:08:49;23.60;97.10
27745;DHT22;61387;48.112;8.616;2023-07-13T18:13:41;23.50;97.30
27745;DHT22;61387;48.112;8.616;2023-07-13T18:16:17;23.20;97.70
27745;DHT22;61387;48.112;8.616;2023-07-13T18:18:44;23.00;98.30
27745;DHT22;61387;48.112;8.616;2023-07-13T18:26:09;22.30;99.00
27745;DHT22;61387;48.112;8.616;2023-07-13T18:28:35;22.30;99.30
27745;DHT22;61387;48.112;8.616;2023-07-13T18:33:31;22.20;99.10
27745;DHT22;61387;48.112;8.616;2023-07-13T18:36:03;22.10;99.50
27745;DHT22;61387;48.112;8.616;2023-07-13T18:38:30;22.10;99.90
27745;DHT22;61387;48.112;8.616;2023-07-13T18:40:58;22.00;99.60
27745;DHT22;61387;48.112;8.616;2023-07-13T18:43:24;22.00;99.80
27745;DHT22;61387;48.112;8.616;2023-07-13T18:45:56;21.80;99.50
27745;DHT22;61387;48.112;8.616;2023-07-13T18:48:26;23.40;99.90
27745;DHT22;61387;48.112;8.616;2023-07-13T18:50:52;21.60;99.80
27745;DHT22;61387;48.112;8.616;2023-07-13T18:53:18;21.60;99.90
27745;DHT22;61387;48.112;8.616;2023-07-13T18:55:45;21.40;99.90
27745;DHT22;61387;48.112;8.616;2023-07-13T18:58:12;22.60;99.90
27745;DHT22;61387;48.112;8.616;2023-07-13T19:00:41;21.50;99.90
27745;DHT22;61387;48.112;8.616;2023-07-13T19:03:17;21.40;99.90
27745;DHT22;61387;48.112;8.616;2023-07-13T19:05:43;21.40;99.90
27745;DHT22;61387;48.112;8.616;2023-07-13T19:08:17;21.30;99.90
27745;DHT22;61387;48.112;8.616;2023-07-13T19:10:44;21.30;99.90
27745;DHT22;61387;48.112;8.616;2023-07-13T19:13:21;21.20;99.90
27745;DHT22;61387;48.112;8.616;2023-07-13T19:15:48;23.70;99.90
27745;DHT22;61387;48.112;8.616;2023-07-13T19:18:17;21.10;99.90
27745;DHT22;61387;48.112;8.616;2023-07-13T19:20:45;20.90;99.90
27745;DHT22;61387;48.112;8.616;2023-07-13T19:26:15;20.70;99.90
27745;DHT22;61387;48.112;8.616;2023-07-13T19:28:43;20.50;99.90
27745;DHT22;61387;48.112;8.616;2023-07-13T19:31:27;20.30;99.90
27745;DHT22;61387;48.112;8.616;2023-07-13T19:34:00;20.30;99.90
27745;DHT22;61387;48.112;8.616;2023-07-13T19:36:30;20.10;99.90
27745;DHT22;61387;48.112;8.616;2023-07-13T19:38:56;19.90;99.90
27745;DHT22;61387;48.112;8.616;2023-07-13T19:41:23;19.70;99.90
27745;DHT22;61387;48.112;8.616;2023-07-13T19:43:50;20.40;99.90
27745;DHT22;61387;48.112;8.616;2023-07-13T19:46:52;21.20;99.90
27745;DHT22;61387;48.112;8.616;2023-07-13T19:49:10;19.10;99.90
27745;DHT22;61387;48.112;8.616;2023-07-13T19:51:36;18.80;99.90
27745;DHT22;61387;48.112;8.616;2023-07-13T19:54:10;18.70;99.90
27745;DHT22;61387;48.112;8.616;2023-07-13T19:56:37;18.50;99.90